Time;durP1;ratioP1;P1;durP2;ratioP2;P2;SDS_P1;SDS_P2;PMS_P1;PMS_P2;Temp;Humidity;BMP_temperature;BMP_pressure;BME280_temperature;BME280_humidity;BME280_pressure;Samples;Min_cycle;Max_cycle;Signal;HPM_P1;HPM_P2
2022/01/23 00:02:14;;;;;;;46.33;29.03;;;6.30;99.90;;;;;;5087373;28;20425;-40
2022/01/23 00:04:40;;;;;;;41.53;27.40;;;6.50;99.90;;;;;;5088672;28;20430;-41
2022/01/23 00:07:09;;;;;;;50.10;28.60;;;6.30;99.90;;;;;;5088069;28;20423;-40
2022/01/23 00:09:36;;;;;;;45.53;27.80;;;6.40;99.90;;;;;;5088937;28;20429;-39
2022/01/23 00:12:07;;;;;;;41.67;27.57;;;6.40;99.90;;;;;;5080950;28;20438;-44
2022/01/23 00:19:43;;;;;;;46.20;28.60;;;6.10;99.90;;;;;;5088491;28;20796;-40
2022/01/23 00:22:10;;;;;;;42.93;26.97;;;6.10;99.90;;;;;;5075679;28;20247;-40
2022/01/23 00:32:46;;;;;;;38.40;26.23;;;6.10;99.90;;;;;;5089263;28;20428;-40
2022/01/23 00:35:12;;;;;;;41.20;27.83;;;6.10;99.90;;;;;;5088727;28;20422;-41
2022/01/23 00:37:38;;;;;;;44.63;27.80;;;6.20;99.90;;;;;;5087102;28;20257;-40
2022/01/23 00:40:05;;;;;;;41.03;27.23;;;6.30;99.90;;;;;;5088063;28;20192;-40
2022/01/23 00:42:31;;;;;;;40.60;25.97;;;6.20;99.90;;;;;;5075663;28;20193;-42
2022/01/23 00:45:11;;;;;;;40.90;26.03;;;6.20;99.90;;;;;;5088811;28;20410;-40
2022/01/23 00:47:37;;;;;;;39.40;24.87;;;6.30;99.90;;;;;;5088911;28;20436;-40
2022/01/23 00:50:03;;;;;;;44.13;26.30;;;6.30;99.90;;;;;;5086478;28;20418;-40
2022/01/23 00:52:29;;;;;;;43.87;27.73;;;6.10;99.90;;;;;;5088518;28;20410;-40
2022/01/23 00:54:55;;;;;;;38.73;26.63;;;6.20;99.90;;;;;;5088697;28;20484;-41
2022/01/23 00:57:21;;;;;;;42.27;26.80;;;6.20;99.90;;;;;;5074481;28;20557;-40
2022/01/23 00:59:47;;;;;;;40.40;27.73;;;6.10;99.90;;;;;;5087711;28;20423;-41
2022/01/23 01:02:13;;;;;;;35.73;25.23;;;6.20;99.90;;;;;;5088674;28;20508;-40
2022/01/23 01:04:38;;;;;;;41.17;26.17;;;6.50;99.90;;;;;;5088755;28;20619;-40
2022/01/23 01:07:04;;;;;;;37.50;25.20;;;6.30;99.90;;;;;;5088003;28;20188;-41
2022/01/23 01:09:31;;;;;;;42.20;24.87;;;6.60;99.90;;;;;;5087547;28;20632;-40
2022/01/23 01:11:59;;;;;;;37.40;24.90;;;6.30;99.90;;;;;;5080131;28;20687;-41
2022/01/23 01:14:42;;;;;;;40.33;24.67;;;6.10;99.90;;;;;;5088207;28;20571;-40
2022/01/23 01:17:28;;;;;;;39.70;24.57;;;6.20;99.90;;;;;;5086281;28;20440;-40
2022/01/23 01:30:59;;;;;;;36.57;23.67;;;6.10;99.90;;;;;;5080818;28;20414;-41
2022/01/23 01:33:43;;;;;;;34.57;22.93;;;6.20;99.90;;;;;;5086062;28;20975;-40
2022/01/23 01:38:51;;;;;;;32.90;23.00;;;6.20;99.90;;;;;;5078382;28;20462;-43
2022/01/23 01:41:21;;;;;;;37.60;23.13;;;6.40;99.90;;;;;;5081732;28;20765;-40
2022/01/23 01:43:49;;;;;;;37.30;23.00;;;6.10;99.90;;;;;;5079556;28;20830;-40
2022/01/23 01:46:15;;;;;;;33.93;22.20;;;6.00;99.90;;;;;;5088047;28;20422;-40
2022/01/23 01:48:41;;;;;;;35.97;23.33;;;6.00;99.90;;;;;;5087456;28;20990;-40
2022/01/23 01:51:12;;;;;;;36.20;23.33;;;6.10;99.90;;;;;;5086965;28;20528;-40
2022/01/23 01:53:38;;;;;;;38.27;23.30;;;6.10;99.90;;;;;;5087591;28;20431;-40
2022/01/23 01:56:06;;;;;;;30.73;21.63;;;6.20;99.90;;;;;;5084458;28;20438;-40
2022/01/23 02:02:40;;;;;;;31.60;22.20;;;6.10;99.90;;;;;;5086528;28;20437;-40
2022/01/23 02:09:23;;;;;;;32.90;22.00;;;6.10;99.90;;;;;;5086504;28;20936;-40
2022/01/23 02:17:25;;;;;;;31.40;20.70;;;6.00;99.90;;;;;;5086288;28;20429;-41
2022/01/23 02:55:28;;;;;;;32.20;20.80;;;6.10;99.90;;;;;;5086714;28;20802;-40
2022/01/23 02:57:58;;;;;;;34.90;22.67;;;6.50;99.90;;;;;;5083319;28;20527;-43
2022/01/23 03:00:31;;;;;;;38.00;24.83;;;6.20;99.90;;;;;;5089864;28;20418;-42
2022/01/23 03:03:03;;;;;;;40.87;25.60;;;6.10;99.90;;;;;;5090917;28;20434;-41
2022/01/23 03:10:36;;;;;;;43.93;27.03;;;6.00;99.90;;;;;;5089553;28;20535;-40
2022/01/23 03:26:50;;;;;;;43.53;25.73;;;5.90;99.90;;;;;;5087537;28;20936;-40
2022/01/23 03:34:17;;;;;;;41.90;27.40;;;6.10;99.90;;;;;;5090264;28;20241;-41
2022/01/23 03:36:43;;;;;;;45.00;27.80;;;6.00;99.90;;;;;;5090215;28;20433;-40
2022/01/23 03:39:09;;;;;;;45.53;27.00;;;6.00;99.90;;;;;;5089766;28;20573;-41
2022/01/23 03:41:37;;;;;;;47.00;27.50;;;6.10;99.90;;;;;;5088537;28;20421;-40
2022/01/23 03:44:05;;;;;;;42.70;27.87;;;6.10;99.90;;;;;;5083284;28;20433;-41
2022/01/23 03:46:51;;;;;;;40.67;26.70;;;6.10;99.90;;;;;;5089846;28;20414;-40
2022/01/23 03:49:31;;;;;;;47.50;28.07;;;6.30;99.90;;;;;;5089552;28;20989;-42
2022/01/23 03:52:05;;;;;;;41.90;26.30;;;6.00;99.90;;;;;;5089207;28;20479;-42
2022/01/23 03:54:31;;;;;;;39.40;25.60;;;5.80;99.90;;;;;;5089439;28;20449;-41
2022/01/23 03:56:59;;;;;;;38.70;25.77;;;6.10;99.90;;;;;;5086285;28;20450;-41
2022/01/23 03:59:25;;;;;;;45.33;27.17;;;6.10;99.90;;;;;;5082825;28;20462;-41
2022/01/23 04:01:51;;;;;;;39.33;26.57;;;6.00;99.90;;;;;;5088583;28;20421;-40
2022/01/23 04:04:35;;;;;;;41.80;26.03;;;6.00;99.90;;;;;;5089295;28;20911;-40
2022/01/23 04:07:01;;;;;;;41.93;25.27;;;6.00;99.90;;;;;;5089270;28;20601;-41
2022/01/23 04:09:27;;;;;;;42.50;25.90;;;6.20;99.90;;;;;;5089398;28;20435;-41
2022/01/23 04:11:53;;;;;;;41.40;25.63;;;6.00;99.90;;;;;;5086741;28;20550;-40
2022/01/23 04:14:21;;;;;;;37.53;24.50;;;6.00;99.90;;;;;;5077477;28;20259;-40
2022/01/23 04:17:41;;;;;;;35.87;24.37;;;6.30;99.90;;;;;;5088667;28;20789;-42
2022/01/23 04:19:37;;;;;;;37.73;23.30;;;6.10;99.90;;;;;;5088487;28;20846;-39
2022/01/23 04:33:24;;;;;;;33.50;20.53;;;6.30;99.90;;;;;;5087794;28;20427;-40
2022/01/23 05:00:32;;;;;;;33.10;22.23;;;6.00;99.90;;;;;;5084233;28;20493;-40
2022/01/23 05:05:42;;;;;;;29.77;19.80;;;6.00;99.90;;;;;;5088459;28;20425;-41
2022/01/23 05:08:16;;;;;;;33.60;21.60;;;6.20;99.90;;;;;;5088606;28;20431;-41
2022/01/23 05:10:42;;;;;;;29.90;20.30;;;6.30;99.90;;;;;;5087404;28;20188;-40
2022/01/23 05:13:07;;;;;;;32.80;20.23;;;6.20;99.90;;;;;;5080226;28;20554;-40
2022/01/23 05:15:34;;;;;;;29.23;19.97;;;6.30;99.90;;;;;;5078125;28;20642;-41
2022/01/23 05:18:00;;;;;;;31.33;20.90;;;5.90;99.90;;;;;;5088230;28;20576;-40
2022/01/23 05:20:28;;;;;;;33.40;22.77;;;6.20;99.90;;;;;;5086868;28;20422;-41
2022/01/23 05:23:00;;;;;;;32.40;21.07;;;6.30;99.90;;;;;;5088001;28;20187;-40
2022/01/23 05:25:29;;;;;;;36.30;23.83;;;6.20;99.90;;;;;;5080873;28;20439;-42
2022/01/23 05:27:55;;;;;;;38.77;24.90;;;6.10;99.90;;;;;;5082730;28;20883;-42
2022/01/23 05:30:21;;;;;;;39.90;25.10;;;6.10;99.90;;;;;;5076738;28;20426;-40
2022/01/23 05:32:47;;;;;;;35.20;23.47;;;6.00;99.90;;;;;;5087848;28;20188;-40
2022/01/23 05:35:17;;;;;;;41.80;25.03;;;6.20;99.90;;;;;;5079583;28;20458;-41
2022/01/23 05:37:43;;;;;;;36.57;26.50;;;6.00;99.90;;;;;;5083316;28;20767;-42
2022/01/23 05:40:11;;;;;;;38.77;25.07;;;5.90;99.90;;;;;;5086917;28;20871;-43
2022/01/23 05:42:37;;;;;;;39.33;25.90;;;6.00;99.90;;;;;;5085552;28;20433;-41
2022/01/23 05:45:03;;;;;;;38.50;24.87;;;5.80;99.90;;;;;;5076383;28;20418;-40
2022/01/23 05:47:29;;;;;;;35.60;23.87;;;5.90;99.90;;;;;;5087168;28;20184;-40
2022/01/23 05:49:55;;;;;;;37.90;23.53;;;5.80;99.90;;;;;;5087561;28;20430;-40
2022/01/23 05:52:20;;;;;;;41.20;26.67;;;5.80;99.90;;;;;;5087515;28;20778;-40
2022/01/23 05:54:46;;;;;;;40.53;26.83;;;5.90;99.90;;;;;;5087865;28;20188;-41
2022/01/23 05:57:12;;;;;;;35.57;25.00;;;5.80;99.90;;;;;;5086433;28;20196;-41
2022/01/23 05:59:37;;;;;;;43.30;25.33;;;5.90;99.90;;;;;;5079845;28;20212;-40
2022/01/23 06:02:04;;;;;;;38.73;26.63;;;5.90;99.90;;;;;;5087444;28;20603;-41
2022/01/23 06:04:29;;;;;;;45.60;28.17;;;5.80;99.90;;;;;;5087444;28;20180;-40
2022/01/23 06:06:57;;;;;;;44.50;28.97;;;5.80;99.90;;;;;;5086047;28;20422;-40
2022/01/23 06:09:24;;;;;;;44.00;28.37;;;5.80;99.90;;;;;;5087554;28;20418;-40
2022/01/23 06:11:51;;;;;;;40.67;26.40;;;5.70;99.90;;;;;;5087242;28;20418;-41
2022/01/23 06:14:17;;;;;;;43.83;26.97;;;5.90;99.90;;;;;;5077452;28;20439;-40
2022/01/23 06:16:43;;;;;;;38.77;26.37;;;6.00;99.90;;;;;;5083036;28;20471;-40
2022/01/23 06:19:09;;;;;;;39.23;24.93;;;6.20;99.90;;;;;;5087180;28;20469;-41
2022/01/23 06:21:34;;;;;;;39.23;24.17;;;5.90;99.90;;;;;;5086595;28;20184;-40
2022/01/23 06:24:06;;;;;;;42.00;26.47;;;6.00;99.90;;;;;;5087316;28;20188;-41
2022/01/23 06:26:57;;;;;;;37.73;25.03;;;6.10;99.90;;;;;;5074249;28;20212;-41
2022/01/23 06:29:24;;;;;;;44.37;25.90;;;5.90;99.90;;;;;;5066524;28;20447;-40
2022/01/23 06:31:53;;;;;;;42.30;26.90;;;6.00;99.90;;;;;;5090067;28;20422;-42
2022/01/23 06:34:19;;;;;;;37.30;24.70;;;6.00;99.90;;;;;;5091431;28;20525;-42
2022/01/23 06:36:48;;;;;;;42.07;24.83;;;6.00;99.90;;;;;;5091536;28;20430;-40
2022/01/23 06:39:14;;;;;;;39.30;25.33;;;6.00;99.90;;;;;;5091690;28;20501;-40
2022/01/23 06:41:40;;;;;;;40.67;27.30;;;6.10;99.90;;;;;;5090396;28;20456;-40
2022/01/23 06:44:06;;;;;;;41.67;26.50;;;6.00;99.90;;;;;;5079957;28;20213;-40
2022/01/23 06:46:33;;;;;;;44.90;25.37;;;6.10;99.90;;;;;;5090533;28;20799;-40
2022/01/23 06:49:00;;;;;;;45.20;26.20;;;6.10;99.90;;;;;;5091153;28;20428;-40
2022/01/23 06:51:25;;;;;;;55.40;28.37;;;6.00;99.90;;;;;;5088930;28;21133;-40
2022/01/23 06:53:52;;;;;;;50.80;27.97;;;5.90;99.90;;;;;;5091182;28;20433;-40
2022/01/23 06:56:18;;;;;;;52.60;30.70;;;5.90;99.90;;;;;;5090714;28;20224;-41
2022/01/23 06:58:44;;;;;;;53.17;28.23;;;5.80;99.90;;;;;;5083729;28;20453;-40
2022/01/23 07:01:10;;;;;;;49.57;28.83;;;6.00;99.90;;;;;;5087506;28;20864;-43
2022/01/23 07:03:37;;;;;;;47.23;27.67;;;6.00;99.90;;;;;;5090922;28;20426;-40
2022/01/23 07:06:04;;;;;;;53.93;28.83;;;5.80;99.90;;;;;;5090955;28;20422;-41
2022/01/23 07:08:30;;;;;;;48.13;28.33;;;5.80;99.90;;;;;;5090844;28;20438;-40
2022/01/23 07:10:56;;;;;;;47.40;28.53;;;5.90;99.90;;;;;;5089919;28;20581;-40
2022/01/23 07:13:22;;;;;;;52.10;30.07;;;6.10;99.90;;;;;;5087712;28;20785;-42
2022/01/23 07:15:48;;;;;;;48.83;28.60;;;6.00;99.90;;;;;;5082589;28;20430;-41
2022/01/23 07:18:18;;;;;;;53.67;29.00;;;5.90;99.90;;;;;;5088444;28;20530;-40
2022/01/23 07:20:45;;;;;;;52.47;30.90;;;6.10;99.90;;;;;;5089867;28;20698;-40
2022/01/23 07:23:11;;;;;;;53.37;28.43;;;5.90;99.90;;;;;;5090366;28;20462;-40
2022/01/23 07:25:37;;;;;;;52.17;28.73;;;6.20;99.90;;;;;;5081600;28;20997;-40
2022/01/23 07:28:05;;;;;;;55.60;29.23;;;6.00;99.90;;;;;;5085590;28;20461;-40
2022/01/23 07:32:56;;;;;;;51.83;29.00;;;6.00;99.90;;;;;;5090098;28;20438;-41
2022/01/23 07:35:22;;;;;;;49.60;30.30;;;6.10;99.90;;;;;;5090286;28;20231;-42
2022/01/23 07:37:48;;;;;;;49.07;27.67;;;6.00;99.90;;;;;;5090328;28;20215;-40
2022/01/23 07:40:13;;;;;;;52.40;27.77;;;6.10;99.90;;;;;;5089732;28;20199;-40
2022/01/23 07:42:40;;;;;;;50.60;30.37;;;6.10;99.90;;;;;;5088830;28;20237;-39
2022/01/23 07:45:07;;;;;;;49.23;28.60;;;6.00;99.90;;;;;;5076160;28;20199;-40
2022/01/23 07:47:32;;;;;;;46.30;28.40;;;6.10;99.90;;;;;;5088326;28;20422;-41
2022/01/23 07:49:58;;;;;;;47.33;27.87;;;6.20;99.90;;;;;;5089380;28;20469;-42
2022/01/23 07:52:24;;;;;;;49.53;28.07;;;6.30;99.90;;;;;;5089979;28;20263;-40
2022/01/23 07:54:50;;;;;;;51.17;30.17;;;6.30;99.90;;;;;;5089781;28;20192;-40
2022/01/23 07:57:15;;;;;;;51.10;27.50;;;6.10;99.90;;;;;;5089641;28;20839;-42
2022/01/23 07:59:41;;;;;;;48.13;26.67;;;6.00;99.90;;;;;;5078208;28;20705;-40
2022/01/23 08:02:08;;;;;;;47.53;28.00;;;6.00;99.90;;;;;;5085687;28;20188;-40
2022/01/23 08:04:33;;;;;;;52.97;30.93;;;6.20;99.90;;;;;;5089696;28;20192;-41
2022/01/23 08:07:21;;;;;;;48.90;28.40;;;6.10;99.90;;;;;;5090049;28;20433;-43
2022/01/23 08:09:46;;;;;;;43.93;27.33;;;6.20;99.90;;;;;;5088560;28;20286;-41
2022/01/23 08:12:12;;;;;;;54.03;29.10;;;6.10;99.90;;;;;;5089672;28;20436;-43
2022/01/23 08:14:38;;;;;;;51.23;28.57;;;6.10;99.90;;;;;;5080710;28;20658;-39
2022/01/23 08:17:04;;;;;;;54.53;28.83;;;6.20;99.90;;;;;;5086556;28;20200;-40
2022/01/23 08:19:29;;;;;;;45.97;27.17;;;6.20;99.90;;;;;;5089095;28;20272;-40
2022/01/23 08:21:55;;;;;;;44.80;26.60;;;6.30;99.90;;;;;;5088782;28;20427;-40
2022/01/23 08:24:21;;;;;;;48.23;28.03;;;6.20;99.90;;;;;;5088788;28;20279;-41
2022/01/23 08:26:46;;;;;;;48.13;28.47;;;6.10;99.90;;;;;;5089240;28;20196;-44
2022/01/23 08:29:12;;;;;;;50.87;29.40;;;6.10;99.90;;;;;;5082682;28;20221;-41
2022/01/23 08:31:38;;;;;;;54.97;30.23;;;6.10;99.90;;;;;;5082125;28;20200;-41
2022/01/23 08:34:03;;;;;;;55.80;28.93;;;6.20;99.90;;;;;;5089175;28;20177;-40
2022/01/23 08:36:31;;;;;;;48.67;28.57;;;6.20;99.90;;;;;;5088706;28;20232;-40
2022/01/23 08:38:59;;;;;;;55.07;30.10;;;6.10;99.90;;;;;;5088613;28;20204;-40
2022/01/23 08:43:51;;;;;;;48.53;28.60;;;6.20;99.90;;;;;;5087043;28;20439;-40
2022/01/23 08:46:17;;;;;;;51.70;27.27;;;6.40;99.90;;;;;;5080328;28;20183;-42
2022/01/23 08:48:43;;;;;;;46.77;27.07;;;6.10;99.90;;;;;;5081172;28;20525;-40
2022/01/23 08:51:10;;;;;;;47.47;28.27;;;6.20;99.90;;;;;;5087942;28;20987;-41
2022/01/23 08:53:37;;;;;;;51.20;29.40;;;6.30;99.90;;;;;;5089051;28;20452;-40
2022/01/23 08:56:03;;;;;;;47.50;26.57;;;6.10;99.90;;;;;;5088605;28;20421;-40
2022/01/23 08:58:29;;;;;;;47.17;27.47;;;6.00;99.90;;;;;;5088740;28;20470;-41
2022/01/23 09:00:54;;;;;;;52.27;29.97;;;6.20;99.90;;;;;;5074715;28;20936;-43
2022/01/23 09:03:20;;;;;;;55.03;30.37;;;6.20;99.90;;;;;;5087113;28;20637;-40
2022/01/23 09:05:46;;;;;;;46.90;27.83;;;6.30;99.90;;;;;;5087171;28;20725;-40
2022/01/23 09:08:11;;;;;;;50.70;29.20;;;6.20;99.90;;;;;;5085228;28;20517;-41
2022/01/23 09:10:53;;;;;;;44.80;26.80;;;6.20;99.90;;;;;;5087944;28;20188;-40
2022/01/23 09:13:30;;;;;;;43.10;26.40;;;6.20;99.90;;;;;;5084331;28;20214;-41
2022/01/23 09:15:56;;;;;;;55.30;29.50;;;6.30;99.90;;;;;;5078485;28;20448;-41
2022/01/23 09:18:22;;;;;;;58.67;31.87;;;6.40;99.90;;;;;;5086115;28;20466;-41
2022/01/23 09:20:47;;;;;;;55.17;29.03;;;6.20;99.90;;;;;;5086493;28;20251;-40
2022/01/23 09:23:13;;;;;;;62.13;31.00;;;6.30;99.90;;;;;;5086928;28;20184;-40
2022/01/23 09:25:39;;;;;;;57.60;30.90;;;6.40;99.90;;;;;;5078198;28;20189;-40
2022/01/23 09:28:07;;;;;;;58.00;30.03;;;6.60;99.90;;;;;;5083552;28;20334;-42
2022/01/23 09:30:36;;;;;;;54.90;29.40;;;6.40;99.90;;;;;;5077505;28;20220;-40
2022/01/23 09:33:02;;;;;;;52.60;30.20;;;6.80;99.90;;;;;;5087517;28;20788;-40
2022/01/23 09:35:28;;;;;;;51.63;27.50;;;6.50;99.90;;;;;;5088027;28;21170;-40
2022/01/23 09:37:54;;;;;;;55.93;29.90;;;6.40;99.90;;;;;;5087728;28;20569;-41
2022/01/23 09:40:20;;;;;;;53.43;28.27;;;6.30;99.90;;;;;;5080154;28;20199;-41
2022/01/23 09:42:54;;;;;;;52.57;29.20;;;6.40;99.90;;;;;;5086336;28;20678;-41
2022/01/23 09:45:21;;;;;;;52.17;28.87;;;6.60;99.90;;;;;;5073672;28;20294;-40
2022/01/23 09:47:47;;;;;;;56.20;28.97;;;6.40;99.90;;;;;;5086526;28;20782;-40
2022/01/23 09:50:15;;;;;;;52.67;28.53;;;6.50;99.90;;;;;;5086258;28;20462;-41
2022/01/23 09:52:41;;;;;;;55.00;28.90;;;6.60;99.90;;;;;;5086762;28;20466;-40
2022/01/23 09:55:11;;;;;;;47.93;25.63;;;6.50;99.90;;;;;;5087113;28;20491;-41
2022/01/23 09:57:40;;;;;;;53.23;29.30;;;6.60;99.90;;;;;;5086383;28;20454;-40
2022/01/23 10:00:14;;;;;;;49.97;29.57;;;6.60;99.90;;;;;;5077850;28;20462;-40
2022/01/23 10:02:40;;;;;;;47.50;26.80;;;7.00;99.90;;;;;;5086487;28;20406;-41
2022/01/23 10:05:07;;;;;;;52.10;28.63;;;6.80;99.90;;;;;;5086262;28;20430;-40
2022/01/23 10:07:36;;;;;;;51.43;28.53;;;6.70;99.90;;;;;;5087125;28;20431;-41
2022/01/23 10:10:10;;;;;;;47.33;27.77;;;6.90;99.90;;;;;;5086171;28;20437;-42
2022/01/23 10:12:46;;;;;;;43.83;25.70;;;6.80;99.90;;;;;;5086482;28;20811;-41
2022/01/23 10:15:12;;;;;;;50.97;27.53;;;6.70;99.90;;;;;;5077685;28;20968;-40
2022/01/23 10:17:38;;;;;;;45.37;24.67;;;6.90;99.90;;;;;;5078612;28;20431;-40
2022/01/23 10:20:06;;;;;;;48.67;27.23;;;6.80;99.90;;;;;;5085633;28;20430;-42
2022/01/23 10:22:33;;;;;;;45.90;26.87;;;6.80;99.90;;;;;;5086593;28;20801;-40
2022/01/23 10:25:10;;;;;;;43.60;26.17;;;6.90;99.90;;;;;;5085696;28;20647;-40
2022/01/23 10:28:04;;;;;;;39.90;24.07;;;7.00;99.90;;;;;;5086143;28;20417;-40
2022/01/23 10:30:37;;;;;;;42.97;23.27;;;7.20;99.90;;;;;;5076305;28;20507;-43
2022/01/23 10:33:06;;;;;;;43.30;24.47;;;7.10;99.90;;;;;;5082961;28;20414;-40
2022/01/23 10:35:32;;;;;;;47.87;24.37;;;7.20;99.90;;;;;;5086069;28;20495;-40
2022/01/23 10:38:06;;;;;;;40.63;24.30;;;6.90;99.90;;;;;;5085855;28;20922;-41
2022/01/23 10:40:36;;;;;;;45.67;24.47;;;7.10;99.90;;;;;;5085815;28;20711;-41
2022/01/23 10:48:37;;;;;;;40.70;25.20;;;7.20;99.90;;;;;;5030870;28;20800;-40
2022/01/23 10:51:28;;;;;;;41.60;25.13;;;7.10;99.90;;;;;;5085474;28;20472;-40
2022/01/23 10:54:15;;;;;;;40.57;22.90;;;7.30;99.90;;;;;;5082236;28;20433;-40
2022/01/23 10:57:04;;;;;;;35.10;22.50;;;7.20;99.90;;;;;;5087509;28;20444;-40
2022/01/23 10:59:44;;;;;;;37.63;22.40;;;7.30;99.90;;;;;;5087971;28;20462;-40
2022/01/23 11:02:27;;;;;;;37.00;22.77;;;7.30;99.90;;;;;;5079469;28;20860;-40
2022/01/23 11:05:05;;;;;;;40.13;23.10;;;7.10;99.90;;;;;;5078136;28;20418;-41
2022/01/23 11:07:32;;;;;;;40.93;23.73;;;7.20;99.90;;;;;;5084305;28;20494;-40
2022/01/23 11:10:05;;;;;;;37.77;22.63;;;7.10;99.90;;;;;;5084844;28;20411;-41
2022/01/23 11:17:22;;;;;;;37.57;22.57;;;7.30;99.90;;;;;;5084057;28;21013;-40
2022/01/23 11:18:38;;;;;;;30.70;18.60;;;7.30;99.90;;;;;;5005695;28;20876;-41
2022/01/23 11:21:21;;;;;;;35.30;20.00;;;7.20;99.90;;;;;;5089018;28;20771;-40
2022/01/23 11:23:55;;;;;;;38.80;21.67;;;7.30;99.90;;;;;;5078947;28;20473;-40
2022/01/23 11:26:24;;;;;;;33.83;20.40;;;7.20;99.90;;;;;;5084314;28;20821;-40
2022/01/23 11:28:50;;;;;;;33.70;21.03;;;7.20;99.90;;;;;;5088691;28;20444;-41
2022/01/23 11:31:18;;;;;;;31.60;19.23;;;7.10;99.90;;;;;;5082179;28;20456;-42
2022/01/23 11:33:45;;;;;;;34.27;21.17;;;7.20;99.90;;;;;;5086415;28;20184;-42
2022/01/23 11:36:12;;;;;;;33.17;20.57;;;7.40;99.90;;;;;;5077103;28;20545;-40
2022/01/23 11:38:40;;;;;;;33.53;21.13;;;7.30;99.90;;;;;;5090169;28;20484;-40
2022/01/23 11:54:43;;;;;;;31.53;19.80;;;7.40;99.90;;;;;;5088611;28;20501;-40
2022/01/23 11:57:37;;;;;;;35.93;20.33;;;7.30;99.90;;;;;;5088945;28;20450;-40
2022/01/23 12:00:08;;;;;;;33.37;19.83;;;7.10;99.90;;;;;;5087170;28;20868;-40
2022/01/23 12:02:39;;;;;;;28.67;18.37;;;7.20;99.90;;;;;;5081393;28;20826;-41
2022/01/23 12:05:18;;;;;;;30.07;17.97;;;7.40;99.90;;;;;;5088475;28;20829;-40
2022/01/23 12:08:05;;;;;;;29.03;18.23;;;7.40;99.90;;;;;;5076968;28;20520;-40
2022/01/23 12:10:47;;;;;;;25.90;17.10;;;7.70;99.90;;;;;;5087754;28;20584;-42
2022/01/23 12:13:56;;;;;;;32.87;18.87;;;7.60;99.90;;;;;;5089059;28;20426;-40
2022/01/23 12:16:25;;;;;;;27.53;17.77;;;7.60;99.90;;;;;;5077353;28;20439;-40
2022/01/23 12:19:12;;;;;;;30.00;18.13;;;7.40;99.90;;;;;;5088690;28;20480;-41
2022/01/23 12:21:37;;;;;;;26.10;16.50;;;7.50;99.90;;;;;;5087216;28;20419;-40
2022/01/23 12:24:06;;;;;;;26.17;16.73;;;7.80;99.90;;;;;;5087852;28;20660;-41
2022/01/23 12:26:33;;;;;;;26.07;15.60;;;7.50;99.90;;;;;;5086938;28;20293;-40
2022/01/23 12:29:26;;;;;;;18.73;13.20;;;7.80;99.90;;;;;;5088488;28;20925;-40
2022/01/23 12:32:31;;;;;;;25.83;15.67;;;7.60;99.90;;;;;;5078940;28;20441;-40
2022/01/23 12:34:59;;;;;;;31.83;15.80;;;7.60;99.90;;;;;;5033002;28;20522;-40
2022/01/23 12:37:27;;;;;;;24.10;15.60;;;8.00;99.90;;;;;;5025270;28;20433;-40
2022/01/23 12:40:25;;;;;;;23.23;14.43;;;7.80;99.90;;;;;;5055306;28;20484;-43
2022/01/23 12:43:07;;;;;;;19.67;14.27;;;7.90;99.90;;;;;;5087717;28;20437;-41
2022/01/23 12:45:53;;;;;;;24.80;13.53;;;7.90;99.90;;;;;;5084990;28;20505;-40
2022/01/23 12:48:25;;;;;;;22.30;14.50;;;7.90;99.90;;;;;;5076584;28;20959;-41
2022/01/23 12:50:56;;;;;;;23.90;13.50;;;8.00;99.90;;;;;;5086946;28;20421;-40
2022/01/23 12:53:22;;;;;;;16.70;11.97;;;8.00;99.90;;;;;;5087332;28;20483;-40
2022/01/23 12:56:04;;;;;;;19.57;13.27;;;8.00;99.90;;;;;;5087549;28;20430;-40
2022/01/23 12:58:32;;;;;;;16.77;11.03;;;7.90;99.90;;;;;;5087609;28;21045;-41
2022/01/23 13:00:59;;;;;;;13.27;9.73;;;7.90;99.90;;;;;;5080677;28;20442;-40
2022/01/23 13:03:26;;;;;;;16.57;11.80;;;7.90;99.90;;;;;;5081421;28;20419;-41
2022/01/23 13:05:52;;;;;;;18.80;10.20;;;7.90;99.90;;;;;;5087484;28;20511;-40
2022/01/23 13:08:29;;;;;;;16.30;11.57;;;8.10;99.90;;;;;;5087752;28;20947;-41
2022/01/23 13:31:53;;;;;;;15.10;9.80;;;7.80;99.90;;;;;;5079962;28;20885;-40
2022/01/23 13:34:41;;;;;;;15.20;9.80;;;7.90;99.90;;;;;;5083719;28;20428;-42
2022/01/23 13:37:19;;;;;;;13.27;8.90;;;8.10;99.90;;;;;;5087127;28;20857;-43
2022/01/23 13:39:56;;;;;;;12.37;9.30;;;8.00;99.90;;;;;;5085277;28;20556;-41
2022/01/23 13:59:21;;;;;;;10.87;6.83;;;7.50;99.90;;;;;;5086653;28;20461;-41
2022/01/23 14:04:20;;;;;;;11.40;7.87;;;7.70;99.90;;;;;;5082422;28;20468;-40
2022/01/23 14:06:47;;;;;;;9.60;6.90;;;7.80;99.90;;;;;;5066382;28;20606;-40
2022/01/23 14:09:14;;;;;;;9.20;7.00;;;7.90;99.90;;;;;;5078785;28;20423;-41
2022/01/23 14:11:41;;;;;;;11.20;7.40;;;7.50;99.90;;;;;;5085480;28;20430;-44
2022/01/23 14:14:25;;;;;;;10.90;7.80;;;7.90;99.90;;;;;;5087729;28;21041;-40
2022/01/23 14:16:53;;;;;;;13.20;8.63;;;7.80;99.90;;;;;;5086824;28;20423;-40
2022/01/23 14:19:24;;;;;;;11.20;7.53;;;7.80;99.90;;;;;;5085530;28;20462;-41
2022/01/23 14:22:01;;;;;;;11.07;7.03;;;7.60;99.90;;;;;;5086508;28;20815;-41
2022/01/23 14:24:36;;;;;;;14.97;8.00;;;7.70;99.90;;;;;;5086500;28;20430;-40
2022/01/23 14:27:11;;;;;;;12.53;8.03;;;7.60;99.90;;;;;;5073754;28;20421;-41
2022/01/23 14:29:47;;;;;;;10.13;7.03;;;7.70;99.90;;;;;;5086993;28;20422;-40
2022/01/23 14:32:39;;;;;;;9.03;6.47;;;7.60;99.90;;;;;;5077159;28;20438;-40
2022/01/23 14:35:17;;;;;;;8.20;5.83;;;7.70;99.90;;;;;;5082745;28;20484;-40
2022/01/23 14:37:45;;;;;;;6.17;4.83;;;7.50;99.90;;;;;;5087217;28;20935;-41
2022/01/23 14:40:15;;;;;;;6.43;5.10;;;7.50;99.90;;;;;;5086599;28;20415;-40
2022/01/23 14:43:00;;;;;;;7.00;4.73;;;7.50;99.90;;;;;;5087475;28;20449;-41
2022/01/23 14:45:28;;;;;;;5.27;4.07;;;7.40;99.90;;;;;;5087102;28;20864;-42
2022/01/23 14:47:53;;;;;;;5.37;4.17;;;7.60;99.90;;;;;;5078888;28;20441;-40
2022/01/23 14:50:24;;;;;;;7.10;4.60;;;7.40;99.90;;;;;;5086648;28;20418;-41
2022/01/23 14:52:49;;;;;;;6.40;5.20;;;7.70;99.90;;;;;;5090271;28;20222;-42
2022/01/23 14:55:16;;;;;;;7.20;4.80;;;7.40;99.90;;;;;;5089519;28;20426;-41
2022/01/23 14:57:44;;;;;;;6.10;4.87;;;7.30;99.90;;;;;;5090798;28;20315;-43
2022/01/23 15:00:11;;;;;;;8.07;5.07;;;7.30;99.90;;;;;;5090159;28;20799;-40
2022/01/23 15:02:37;;;;;;;8.10;6.20;;;7.30;99.90;;;;;;5078397;28;20550;-41
2022/01/23 15:05:03;;;;;;;8.73;6.60;;;7.40;99.90;;;;;;5085745;28;20501;-41
2022/01/23 15:07:41;;;;;;;9.67;5.53;;;7.30;99.90;;;;;;5090575;28;20216;-41
2022/01/23 15:10:09;;;;;;;8.27;5.77;;;7.50;99.90;;;;;;5090287;28;20766;-40
2022/01/23 15:12:35;;;;;;;9.83;6.93;;;7.40;99.90;;;;;;5090345;28;20492;-41
2022/01/23 15:15:01;;;;;;;9.13;6.40;;;7.60;99.90;;;;;;5089287;28;20989;-40
2022/01/23 15:17:27;;;;;;;8.60;6.17;;;7.80;99.90;;;;;;5082033;28;20444;-40
2022/01/23 15:19:53;;;;;;;10.10;6.77;;;7.30;99.90;;;;;;5084623;28;20460;-40
2022/01/23 15:22:20;;;;;;;10.27;6.60;;;7.70;99.90;;;;;;5090453;28;20176;-42
2022/01/23 15:24:47;;;;;;;9.73;7.00;;;7.50;99.90;;;;;;5090484;28;20426;-40
2022/01/23 15:27:13;;;;;;;8.53;6.97;;;7.40;99.90;;;;;;5090156;28;20509;-42
2022/01/23 15:29:39;;;;;;;8.63;6.60;;;7.40;99.90;;;;;;5089977;28;20419;-41
2022/01/23 15:32:05;;;;;;;12.33;8.07;;;7.40;99.90;;;;;;5084211;28;20805;-42
2022/01/23 15:34:30;;;;;;;9.10;6.60;;;7.50;99.90;;;;;;5087860;28;20180;-40
2022/01/23 15:36:56;;;;;;;10.90;6.73;;;7.30;99.90;;;;;;5090068;28;20684;-40
2022/01/23 15:39:25;;;;;;;10.43;7.30;;;7.20;99.90;;;;;;5088648;28;20204;-40
2022/01/23 15:41:50;;;;;;;9.07;6.20;;;7.10;99.90;;;;;;5089683;28;20533;-40
2022/01/23 15:44:16;;;;;;;10.57;7.93;;;7.10;99.90;;;;;;5089815;28;20514;-40
2022/01/23 15:46:43;;;;;;;10.03;7.33;;;7.20;99.90;;;;;;5088863;28;20180;-40
2022/01/23 15:49:09;;;;;;;13.97;8.10;;;7.00;99.90;;;;;;5081669;28;20435;-42
2022/01/23 15:51:36;;;;;;;10.30;7.60;;;7.10;99.90;;;;;;5089982;28;20411;-41
2022/01/23 15:54:03;;;;;;;11.57;8.23;;;7.10;99.90;;;;;;5089428;28;20529;-40
2022/01/23 15:56:28;;;;;;;10.87;7.77;;;7.10;99.90;;;;;;5089784;28;20536;-40
2022/01/23 15:58:54;;;;;;;13.03;8.60;;;7.10;99.90;;;;;;5089933;28;20557;-40
2022/01/23 16:01:20;;;;;;;11.57;7.73;;;6.90;99.90;;;;;;5090844;28;20742;-41
2022/01/23 16:03:46;;;;;;;11.77;8.60;;;7.00;99.90;;;;;;5080925;28;20255;-40
2022/01/23 16:06:11;;;;;;;10.90;7.80;;;6.90;99.90;;;;;;5089697;28;20180;-40
2022/01/23 16:08:37;;;;;;;14.60;9.80;;;6.90;99.90;;;;;;5089747;28;20659;-40
2022/01/23 16:11:05;;;;;;;16.27;8.37;;;7.00;99.90;;;;;;5087291;28;20188;-40
2022/01/23 16:13:31;;;;;;;12.10;8.30;;;7.10;99.90;;;;;;5084582;28;20200;-40
2022/01/23 16:15:58;;;;;;;14.10;9.10;;;7.00;99.90;;;;;;5089929;28;20429;-41
2022/01/23 16:18:25;;;;;;;13.33;9.67;;;6.90;99.90;;;;;;5080551;28;20477;-42
2022/01/23 16:20:52;;;;;;;12.70;8.30;;;6.80;99.90;;;;;;5087971;28;20943;-41